sensor_id;sensor_type;location;lat;lon;timestamp;pressure;altitude;pressure_sealevel;temperature;humidity
77079;BME280;66004;55.096;38.760;2023-12-04T09:40:27;99656.31;;;-3.28;57.21
77079;BME280;66004;55.096;38.760;2023-12-04T09:42:53;99663.19;;;-3.31;56.84
77079;BME280;66004;55.096;38.760;2023-12-04T09:45:19;99658.81;;;-3.27;57.42
77079;BME280;66004;55.096;38.760;2023-12-04T09:47:47;99669.59;;;-3.20;56.82
77079;BME280;66004;55.096;38.760;2023-12-04T09:50:14;99679.47;;;-3.24;56.50
77079;BME280;66004;55.096;38.760;2023-12-04T09:52:41;99670.34;;;-3.30;56.77
77079;BME280;66004;55.096;38.760;2023-12-04T09:55:08;99676.53;;;-3.18;56.73
77079;BME280;66004;55.096;38.760;2023-12-04T09:57:33;99679.78;;;-3.21;55.90
77079;BME280;66004;55.096;38.760;2023-12-04T10:00:00;99677.63;;;-3.19;56.06
77079;BME280;66004;55.096;38.760;2023-12-04T10:02:28;99681.88;;;-3.06;55.93
77079;BME280;66004;55.096;38.760;2023-12-04T10:04:54;99696.34;;;-2.94;55.69
77079;BME280;66004;55.096;38.760;2023-12-04T10:07:20;99700.66;;;-2.98;55.35
77079;BME280;66004;55.096;38.760;2023-12-04T10:09:45;99698.53;;;-2.96;55.81
77079;BME280;66004;55.096;38.760;2023-12-04T10:12:10;99729.78;;;-3.07;55.26
77079;BME280;66004;55.096;38.760;2023-12-04T10:14:36;99687.16;;;-3.48;55.00
77079;BME280;66004;55.096;38.760;2023-12-04T10:17:22;99714.34;;;-3.30;55.09
77079;BME280;66004;55.096;38.760;2023-12-04T10:20:13;99703.25;;;-3.40;55.24
77079;BME280;66004;55.096;38.760;2023-12-04T10:22:52;99725.03;;;-3.34;55.25
77079;BME280;66004;55.096;38.760;2023-12-04T10:25:19;99737.22;;;-3.29;55.43
77079;BME280;66004;55.096;38.760;2023-12-04T10:27:45;99727.41;;;-3.42;55.01
77079;BME280;66004;55.096;38.760;2023-12-04T10:30:27;99737.28;;;-3.46;54.96
77079;BME280;66004;55.096;38.760;2023-12-04T10:32:57;99738.84;;;-3.50;55.48
77079;BME280;66004;55.096;38.760;2023-12-04T10:35:27;99746.91;;;-3.44;55.66
77079;BME280;66004;55.096;38.760;2023-12-04T10:37:54;99745.44;;;-3.52;55.46
77079;BME280;66004;55.096;38.760;2023-12-04T10:40:28;99755.28;;;-3.56;55.13
77079;BME280;66004;55.096;38.760;2023-12-04T10:43:10;99759.66;;;-3.60;55.18
77079;BME280;66004;55.096;38.760;2023-12-04T10:45:43;99750.16;;;-3.69;55.43
77079;BME280;66004;55.096;38.760;2023-12-04T10:48:11;99757.97;;;-3.61;55.55
77079;BME280;66004;55.096;38.760;2023-12-04T10:50:37;99768.38;;;-3.63;55.76
77079;BME280;66004;55.096;38.760;2023-12-04T10:53:10;99768.47;;;-3.58;55.80
77079;BME280;66004;55.096;38.760;2023-12-04T10:55:36;99774.59;;;-3.50;55.81
77079;BME280;66004;55.096;38.760;2023-12-04T10:58:05;99774.09;;;-3.47;56.06
77079;BME280;66004;55.096;38.760;2023-12-04T11:00:35;99779.84;;;-3.49;55.61
77079;BME280;66004;55.096;38.760;2023-12-04T11:03:08;99775.63;;;-3.57;55.80
77079;BME280;66004;55.096;38.760;2023-12-04T11:05:38;99780.63;;;-3.54;55.88
77079;BME280;66004;55.096;38.760;2023-12-04T11:08:06;99769.63;;;-3.54;55.76
77079;BME280;66004;55.096;38.760;2023-12-04T11:10:33;99763.97;;;-3.64;56.00
77079;BME280;66004;55.096;38.760;2023-12-04T11:13:06;99783.28;;;-3.59;55.97
77079;BME280;66004;55.096;38.760;2023-12-04T11:15:35;99795.53;;;-3.49;56.29
77079;BME280;66004;55.096;38.760;2023-12-04T11:18:06;99793.28;;;-3.53;56.08
77079;BME280;66004;55.096;38.760;2023-12-04T11:20:39;99789.63;;;-3.58;56.22
77079;BME280;66004;55.096;38.760;2023-12-04T11:23:05;99818.59;;;-3.50;56.32
77079;BME280;66004;55.096;38.760;2023-12-04T11:25:31;99818.69;;;-3.45;56.33
77079;BME280;66004;55.096;38.760;2023-12-04T11:28:00;99809.19;;;-3.55;56.40
77079;BME280;66004;55.096;38.760;2023-12-04T11:30:27;99812.59;;;-3.47;56.32
77079;BME280;66004;55.096;38.760;2023-12-04T11:32:54;99814.56;;;-3.43;56.29
77079;BME280;66004;55.096;38.760;2023-12-04T11:35:25;99827.41;;;-3.48;55.95
77079;BME280;66004;55.096;38.760;2023-12-04T11:37:52;99824.97;;;-3.67;55.99
77079;BME280;66004;55.096;38.760;2023-12-04T11:40:17;99827.16;;;-3.69;56.60
77079;BME280;66004;55.096;38.760;2023-12-04T11:42:43;99825.97;;;-3.73;56.77
77079;BME280;66004;55.096;38.760;2023-12-04T11:45:09;99835.88;;;-3.72;56.71
77079;BME280;66004;55.096;38.760;2023-12-04T11:47:54;99831.78;;;-3.69;56.97
77079;BME280;66004;55.096;38.760;2023-12-04T11:50:21;99832.31;;;-3.73;56.44
77079;BME280;66004;55.096;38.760;2023-12-04T11:52:47;99815.47;;;-3.76;56.92
77079;BME280;66004;55.096;38.760;2023-12-04T11:55:22;99838.78;;;-3.62;56.82
77079;BME280;66004;55.096;38.760;2023-12-04T11:57:59;99840.94;;;-3.64;57.06
77079;BME280;66004;55.096;38.760;2023-12-04T12:00:24;99836.97;;;-3.73;57.12
77079;BME280;66004;55.096;38.760;2023-12-04T12:05:20;99865.19;;;-3.61;57.49
77079;BME280;66004;55.096;38.760;2023-12-04T12:07:45;99854.13;;;-3.66;57.37
77079;BME280;66004;55.096;38.760;2023-12-04T12:10:12;99835.78;;;-3.77;57.63
77079;BME280;66004;55.096;38.760;2023-12-04T12:12:39;99856.28;;;-3.68;57.83
77079;BME280;66004;55.096;38.760;2023-12-04T12:15:09;99848.81;;;-3.73;57.96
77079;BME280;66004;55.096;38.760;2023-12-04T12:17:35;99855.78;;;-3.65;58.16
77079;BME280;66004;55.096;38.760;2023-12-04T12:20:01;99852.03;;;-3.59;58.10
77079;BME280;66004;55.096;38.760;2023-12-04T12:22:29;99844.28;;;-3.62;58.40
77079;BME280;66004;55.096;38.760;2023-12-04T12:24:54;99864.44;;;-3.56;58.50
77079;BME280;66004;55.096;38.760;2023-12-04T12:27:20;99861.97;;;-3.58;58.68
77079;BME280;66004;55.096;38.760;2023-12-04T12:29:45;99864.44;;;-3.56;58.92
77079;BME280;66004;55.096;38.760;2023-12-04T12:32:10;99864.78;;;-3.53;58.81
77079;BME280;66004;55.096;38.760;2023-12-04T12:34:36;99865.63;;;-3.52;58.86
77079;BME280;66004;55.096;38.760;2023-12-04T12:37:03;99868.63;;;-3.54;58.63
77079;BME280;66004;55.096;38.760;2023-12-04T12:39:31;99855.28;;;-3.62;58.76
77079;BME280;66004;55.096;38.760;2023-12-04T12:41:57;99864.13;;;-3.60;58.81
77079;BME280;66004;55.096;38.760;2023-12-04T12:44:22;99860.28;;;-3.59;59.14
77079;BME280;66004;55.096;38.760;2023-12-04T12:46:48;99873.03;;;-3.53;58.81
77079;BME280;66004;55.096;38.760;2023-12-04T12:49:17;99881.28;;;-3.53;58.58
77079;BME280;66004;55.096;38.760;2023-12-04T12:51:44;99879.63;;;-3.54;58.53
77079;BME280;66004;55.096;38.760;2023-12-04T12:54:10;99865.28;;;-3.56;58.31
77079;BME280;66004;55.096;38.760;2023-12-04T12:56:35;99884.44;;;-3.61;58.22
77079;BME280;66004;55.096;38.760;2023-12-04T12:59:00;99884.13;;;-3.64;57.99
77079;BME280;66004;55.096;38.760;2023-12-04T13:01:30;99893.13;;;-3.69;57.82
77079;BME280;66004;55.096;38.760;2023-12-04T13:03:57;99895.78;;;-3.74;57.29
77079;BME280;66004;55.096;38.760;2023-12-04T13:06:22;99904.47;;;-3.82;56.70
77079;BME280;66004;55.096;38.760;2023-12-04T13:08:48;99888.94;;;-3.88;56.88
77079;BME280;66004;55.096;38.760;2023-12-04T13:11:13;99886.59;;;-3.97;57.25
77079;BME280;66004;55.096;38.760;2023-12-04T13:13:39;99917.59;;;-3.84;57.13
77079;BME280;66004;55.096;38.760;2023-12-04T13:16:05;99906.91;;;-3.98;56.49
77079;BME280;66004;55.096;38.760;2023-12-04T13:18:31;99913.41;;;-4.04;56.79
77079;BME280;66004;55.096;38.760;2023-12-04T13:21:00;99923.72;;;-4.11;56.31
77079;BME280;66004;55.096;38.760;2023-12-04T13:23:26;99913.13;;;-4.19;56.79
77079;BME280;66004;55.096;38.760;2023-12-04T13:25:51;99923.03;;;-4.18;57.06
77079;BME280;66004;55.096;38.760;2023-12-04T13:28:17;99928.63;;;-4.13;57.28
77079;BME280;66004;55.096;38.760;2023-12-04T13:30:58;99932.53;;;-4.09;57.47
77079;BME280;66004;55.096;38.760;2023-12-04T13:33:30;99940.78;;;-4.09;57.40
77079;BME280;66004;55.096;38.760;2023-12-04T13:35:55;99950.69;;;-4.08;57.13
77079;BME280;66004;55.096;38.760;2023-12-04T13:38:21;99950.22;;;-4.05;57.63
77079;BME280;66004;55.096;38.760;2023-12-04T13:40:46;99930.53;;;-4.14;57.70
77079;BME280;66004;55.096;38.760;2023-12-04T13:43:26;99949.22;;;-3.99;57.96
77079;BME280;66004;55.096;38.760;2023-12-04T13:46:10;99937.56;;;-4.06;57.79
77079;BME280;66004;55.096;38.760;2023-12-04T13:48:35;99937.06;;;-4.03;57.99
77079;BME280;66004;55.096;38.760;2023-12-04T13:51:05;99967.47;;;-3.93;57.89
77079;BME280;66004;55.096;38.760;2023-12-04T13:53:30;99964.13;;;-3.95;58.25
77079;BME280;66004;55.096;38.760;2023-12-04T13:55:56;99958.66;;;-3.95;58.15
77079;BME280;66004;55.096;38.760;2023-12-04T13:58:24;99953.16;;;-3.95;58.43
77079;BME280;66004;55.096;38.760;2023-12-04T14:01:02;99957.56;;;-3.94;58.49
77079;BME280;66004;55.096;38.760;2023-12-04T14:03:37;99959.22;;;-3.93;58.71
77079;BME280;66004;55.096;38.760;2023-12-04T14:06:03;99969.75;;;-3.89;58.54
77079;BME280;66004;55.096;38.760;2023-12-04T14:08:29;99971.38;;;-3.88;58.82
77079;BME280;66004;55.096;38.760;2023-12-04T14:10:55;99969.75;;;-3.89;58.76
77079;BME280;66004;55.096;38.760;2023-12-04T14:13:20;99961.38;;;-3.95;58.67
77079;BME280;66004;55.096;38.760;2023-12-04T14:15:45;99984.06;;;-3.87;58.94
77079;BME280;66004;55.096;38.760;2023-12-04T14:18:11;99988.47;;;-3.86;58.99
77079;BME280;66004;55.096;38.760;2023-12-04T14:20:37;99989.06;;;-3.84;58.89
77079;BME280;66004;55.096;38.760;2023-12-04T14:23:02;99981.91;;;-3.85;58.87
77079;BME280;66004;55.096;38.760;2023-12-04T14:25:29;99989.31;;;-3.86;58.88
77079;BME280;66004;55.096;38.760;2023-12-04T14:27:56;99965.19;;;-3.96;59.15
77079;BME280;66004;55.096;38.760;2023-12-04T14:30:21;99982.91;;;-3.92;58.83
77079;BME280;66004;55.096;38.760;2023-12-04T14:32:47;99987.41;;;-3.85;59.18
77079;BME280;66004;55.096;38.760;2023-12-04T14:35:13;99984.53;;;-3.91;58.95
77079;BME280;66004;55.096;38.760;2023-12-04T14:37:39;99958.38;;;-4.10;59.01
77079;BME280;66004;55.096;38.760;2023-12-04T14:40:05;99994.97;;;-3.93;59.18
77079;BME280;66004;55.096;38.760;2023-12-04T14:42:31;99996.13;;;-3.88;59.18
77079;BME280;66004;55.096;38.760;2023-12-04T14:44:56;99993.88;;;-3.92;59.18
77079;BME280;66004;55.096;38.760;2023-12-04T14:47:22;99996.06;;;-3.94;59.13
77079;BME280;66004;55.096;38.760;2023-12-04T14:49:48;100000.34;;;-3.98;59.13
77079;BME280;66004;55.096;38.760;2023-12-04T14:52:18;99998.19;;;-3.96;59.33
77079;BME280;66004;55.096;38.760;2023-12-04T14:54:47;100000.56;;;-3.87;59.09
77079;BME280;66004;55.096;38.760;2023-12-04T14:57:27;99998.88;;;-3.88;59.11
77079;BME280;66004;55.096;38.760;2023-12-04T15:00:06;100017.53;;;-3.91;59.30
77079;BME280;66004;55.096;38.760;2023-12-04T15:02:51;100005.38;;;-3.95;59.13
77079;BME280;66004;55.096;38.760;2023-12-04T15:05:28;100007.88;;;-3.93;59.19
77079;BME280;66004;55.096;38.760;2023-12-04T15:08:23;100010.84;;;-3.95;59.24
77079;BME280;66004;55.096;38.760;2023-12-04T15:10:48;99996.31;;;-4.07;59.20
77079;BME280;66004;55.096;38.760;2023-12-04T15:13:32;100008.50;;;-4.03;59.13
77079;BME280;66004;55.096;38.760;2023-12-04T15:16:09;100005.75;;;-4.03;59.21
77079;BME280;66004;55.096;38.760;2023-12-04T15:18:43;100007.41;;;-4.02;59.12
77079;BME280;66004;55.096;38.760;2023-12-04T15:21:08;99998.25;;;-4.07;59.34
77079;BME280;66004;55.096;38.760;2023-12-04T15:23:34;100020.78;;;-3.94;59.18
77079;BME280;66004;55.096;38.760;2023-12-04T15:26:00;100018.03;;;-3.94;59.35
77079;BME280;66004;55.096;38.760;2023-12-04T15:28:27;100023.03;;;-3.91;59.31
77079;BME280;66004;55.096;38.760;2023-12-04T15:30:53;100029.03;;;-3.94;59.33
77079;BME280;66004;55.096;38.760;2023-12-04T15:33:18;100016.34;;;-3.95;59.44
77079;BME280;66004;55.096;38.760;2023-12-04T15:35:45;100031.03;;;-3.89;59.23
77079;BME280;66004;55.096;38.760;2023-12-04T15:38:11;100026.69;;;-3.85;59.33
77079;BME280;66004;55.096;38.760;2023-12-04T15:40:36;100037.22;;;-3.82;59.33
77079;BME280;66004;55.096;38.760;2023-12-04T15:43:02;100038.63;;;-3.79;59.38
77079;BME280;66004;55.096;38.760;2023-12-04T15:45:27;100028.75;;;-3.80;59.43
77079;BME280;66004;55.096;38.760;2023-12-04T15:47:54;100026.81;;;-3.80;59.32
77079;BME280;66004;55.096;38.760;2023-12-04T15:50:19;100037.41;;;-3.72;59.53
77079;BME280;66004;55.096;38.760;2023-12-04T15:52:48;100047.56;;;-3.72;59.21
77079;BME280;66004;55.096;38.760;2023-12-04T15:55:13;100025.41;;;-3.82;59.42
77079;BME280;66004;55.096;38.760;2023-12-04T15:57:39;100049.25;;;-3.71;59.21
77079;BME280;66004;55.096;38.760;2023-12-04T16:00:05;100023.72;;;-3.83;59.51
77079;BME280;66004;55.096;38.760;2023-12-04T16:02:41;100044.25;;;-3.74;59.11
77079;BME280;66004;55.096;38.760;2023-12-04T16:05:07;100047.38;;;-3.82;58.63
77079;BME280;66004;55.096;38.760;2023-12-04T16:07:36;100022.84;;;-4.01;58.61
77079;BME280;66004;55.096;38.760;2023-12-04T16:10:05;100046.19;;;-3.86;58.88
77079;BME280;66004;55.096;38.760;2023-12-04T16:12:33;100045.72;;;-3.83;59.07
77079;BME280;66004;55.096;38.760;2023-12-04T16:15:01;100040.34;;;-3.90;59.27
77079;BME280;66004;55.096;38.760;2023-12-04T16:17:27;100047.38;;;-3.82;59.00
77079;BME280;66004;55.096;38.760;2023-12-04T16:19:53;100052.97;;;-3.77;59.24
77079;BME280;66004;55.096;38.760;2023-12-04T16:22:22;100054.19;;;-3.85;59.07
77079;BME280;66004;55.096;38.760;2023-12-04T16:24:47;100058.97;;;-3.80;59.11
77079;BME280;66004;55.096;38.760;2023-12-04T16:27:12;100070.56;;;-3.78;59.25
77079;BME280;66004;55.096;38.760;2023-12-04T16:29:38;100071.50;;;-3.84;58.76
77079;BME280;66004;55.096;38.760;2023-12-04T16:32:04;100074.19;;;-3.89;58.57
77079;BME280;66004;55.096;38.760;2023-12-04T16:34:29;100069.41;;;-3.94;58.72
77079;BME280;66004;55.096;38.760;2023-12-04T16:36:56;100070.97;;;-3.98;59.05
77079;BME280;66004;55.096;38.760;2023-12-04T16:39:26;100077.28;;;-3.98;58.99
77079;BME280;66004;55.096;38.760;2023-12-04T16:41:52;100080.63;;;-3.96;59.32
77079;BME280;66004;55.096;38.760;2023-12-04T16:44:21;100082.78;;;-3.98;59.22
77079;BME280;66004;55.096;38.760;2023-12-04T16:46:47;100087.94;;;-4.01;59.24
77079;BME280;66004;55.096;38.760;2023-12-04T16:49:15;100079.72;;;-4.13;59.03
77079;BME280;66004;55.096;38.760;2023-12-04T16:51:41;100079.03;;;-4.20;59.16
77079;BME280;66004;55.096;38.760;2023-12-04T16:54:08;100075.72;;;-4.34;59.07
77079;BME280;66004;55.096;38.760;2023-12-04T16:56:33;100102.44;;;-4.30;59.09
77079;BME280;66004;55.096;38.760;2023-12-04T16:58:59;100103.41;;;-4.36;59.38
77079;BME280;66004;55.096;38.760;2023-12-04T17:01:24;100112.75;;;-4.37;59.31
77079;BME280;66004;55.096;38.760;2023-12-04T17:03:50;100116.56;;;-4.38;59.35
77079;BME280;66004;55.096;38.760;2023-12-04T17:06:16;100109.41;;;-4.39;59.43
77079;BME280;66004;55.096;38.760;2023-12-04T17:08:43;100114.28;;;-4.41;59.41
77079;BME280;66004;55.096;38.760;2023-12-04T17:11:08;100114.66;;;-4.49;59.38
77079;BME280;66004;55.096;38.760;2023-12-04T17:13:34;100110.59;;;-4.58;59.34
77079;BME280;66004;55.096;38.760;2023-12-04T17:15:59;100089.91;;;-4.84;59.48
77079;BME280;66004;55.096;38.760;2023-12-04T17:18:25;100125.50;;;-4.78;59.92
77079;BME280;66004;55.096;38.760;2023-12-04T17:20:50;100121.66;;;-4.77;59.77
77079;BME280;66004;55.096;38.760;2023-12-04T17:23:16;100114.38;;;-4.83;59.88
77079;BME280;66004;55.096;38.760;2023-12-04T17:25:41;100128.84;;;-4.76;59.76
77079;BME280;66004;55.096;38.760;2023-12-04T17:28:07;100123.72;;;-4.84;59.96
77079;BME280;66004;55.096;38.760;2023-12-04T17:30:32;100135.88;;;-4.80;60.01
77079;BME280;66004;55.096;38.760;2023-12-04T17:32:58;100129.28;;;-4.91;60.06
77079;BME280;66004;55.096;38.760;2023-12-04T17:35:51;100135.63;;;-4.90;59.94
77079;BME280;66004;55.096;38.760;2023-12-04T17:38:16;100138.59;;;-4.92;59.95
77079;BME280;66004;55.096;38.760;2023-12-04T17:40:45;100128.69;;;-5.04;59.84
77079;BME280;66004;55.096;38.760;2023-12-04T17:46:08;100134.16;;;-5.04;59.57
77079;BME280;66004;55.096;38.760;2023-12-04T17:48:35;100136.19;;;-5.12;59.92
77079;BME280;66004;55.096;38.760;2023-12-04T17:51:03;100141.06;;;-5.14;60.10
77079;BME280;66004;55.096;38.760;2023-12-04T17:53:29;100151.56;;;-5.11;60.30
77079;BME280;66004;55.096;38.760;2023-12-04T17:55:54;100147.75;;;-5.10;60.23
77079;BME280;66004;55.096;38.760;2023-12-04T17:58:20;100140.69;;;-5.17;60.32
77079;BME280;66004;55.096;38.760;2023-12-04T18:00:48;100155.38;;;-5.12;60.25
77079;BME280;66004;55.096;38.760;2023-12-04T18:03:18;100141.53;;;-5.17;60.21
77079;BME280;66004;55.096;38.760;2023-12-04T18:05:45;100125.28;;;-5.30;60.06
77079;BME280;66004;55.096;38.760;2023-12-04T18:08:10;100135.19;;;-5.29;60.31
77079;BME280;66004;55.096;38.760;2023-12-04T18:10:38;100157.22;;;-5.24;60.44
77079;BME280;66004;55.096;38.760;2023-12-04T18:13:04;100157.22;;;-5.24;60.16
77079;BME280;66004;55.096;38.760;2023-12-04T18:15:29;100147.22;;;-5.30;60.54
77079;BME280;66004;55.096;38.760;2023-12-04T18:17:55;100155.56;;;-5.25;60.47
77079;BME280;66004;55.096;38.760;2023-12-04T18:20:20;100169.16;;;-5.30;60.51
77079;BME280;66004;55.096;38.760;2023-12-04T18:22:46;100156.22;;;-5.41;60.74
77079;BME280;66004;55.096;38.760;2023-12-04T18:25:17;100157.16;;;-5.48;60.67
77079;BME280;66004;55.096;38.760;2023-12-04T18:27:43;100160.69;;;-5.59;60.82
77079;BME280;66004;55.096;38.760;2023-12-04T18:30:09;100164.81;;;-5.68;61.01
77079;BME280;66004;55.096;38.760;2023-12-04T18:32:35;100161.63;;;-5.65;61.13
77079;BME280;66004;55.096;38.760;2023-12-04T18:35:01;100162.22;;;-5.81;61.12
77079;BME280;66004;55.096;38.760;2023-12-04T18:37:43;100174.41;;;-5.77;61.29
77079;BME280;66004;55.096;38.760;2023-12-04T18:40:10;100163.81;;;-5.92;61.60
77079;BME280;66004;55.096;38.760;2023-12-04T18:42:38;100186.91;;;-5.81;61.56
77079;BME280;66004;55.096;38.760;2023-12-04T18:45:04;100168.94;;;-5.96;61.52
77079;BME280;66004;55.096;38.760;2023-12-04T18:47:33;100187.81;;;-5.88;61.62
77079;BME280;66004;55.096;38.760;2023-12-04T18:50:01;100179.31;;;-5.98;61.51
77079;BME280;66004;55.096;38.760;2023-12-04T18:52:26;100188.13;;;-5.96;61.78
77079;BME280;66004;55.096;38.760;2023-12-04T18:54:52;100196.19;;;-6.01;61.87
77079;BME280;66004;55.096;38.760;2023-12-04T18:57:18;100184.94;;;-6.11;61.98
77079;BME280;66004;55.096;38.760;2023-12-04T18:59:43;100193.97;;;-6.11;61.95
77079;BME280;66004;55.096;38.760;2023-12-04T19:02:09;100193.59;;;-6.14;61.95
77079;BME280;66004;55.096;38.760;2023-12-04T19:04:37;100200.59;;;-6.18;62.10
77079;BME280;66004;55.096;38.760;2023-12-04T19:07:03;100178.50;;;-6.42;62.04
77079;BME280;66004;55.096;38.760;2023-12-04T19:09:28;100205.28;;;-6.26;62.24
77079;BME280;66004;55.096;38.760;2023-12-04T19:11:57;100217.94;;;-6.24;62.30
77079;BME280;66004;55.096;38.760;2023-12-04T19:14:22;100178.63;;;-6.55;62.15
77079;BME280;66004;55.096;38.760;2023-12-04T19:16:48;100216.75;;;-6.35;62.23
77079;BME280;66004;55.096;38.760;2023-12-04T19:19:13;100197.09;;;-6.51;62.17
77079;BME280;66004;55.096;38.760;2023-12-04T19:21:39;100207.38;;;-6.46;62.09
77079;BME280;66004;55.096;38.760;2023-12-04T19:24:04;100228.22;;;-6.45;62.21
77079;BME280;66004;55.096;38.760;2023-12-04T19:26:30;100204.75;;;-6.59;62.36
77079;BME280;66004;55.096;38.760;2023-12-04T19:28:55;100222.44;;;-6.55;62.44
77079;BME280;66004;55.096;38.760;2023-12-04T19:31:21;100219.50;;;-6.60;62.55
77079;BME280;66004;55.096;38.760;2023-12-04T19:33:46;100229.63;;;-6.61;62.51
77079;BME280;66004;55.096;38.760;2023-12-04T19:36:12;100233.84;;;-6.65;62.36
77079;BME280;66004;55.096;38.760;2023-12-04T19:38:38;100234.31;;;-6.68;62.35
77079;BME280;66004;55.096;38.760;2023-12-04T19:41:04;100230.09;;;-6.71;62.56
77079;BME280;66004;55.096;38.760;2023-12-04T19:43:29;100236.25;;;-6.75;62.62
77079;BME280;66004;55.096;38.760;2023-12-04T19:45:55;100235.25;;;-6.81;62.66
77079;BME280;66004;55.096;38.760;2023-12-04T19:48:22;100242.38;;;-6.80;62.66
77079;BME280;66004;55.096;38.760;2023-12-04T19:50:48;100245.56;;;-6.83;62.93
77079;BME280;66004;55.096;38.760;2023-12-04T19:53:16;100244.50;;;-6.82;62.65
77079;BME280;66004;55.096;38.760;2023-12-04T19:55:41;100241.13;;;-6.84;62.49
77079;BME280;66004;55.096;38.760;2023-12-04T19:58:07;100241.13;;;-6.84;62.59
77079;BME280;66004;55.096;38.760;2023-12-04T20:00:33;100244.94;;;-6.85;62.90
77079;BME280;66004;55.096;38.760;2023-12-04T20:02:59;100228.16;;;-6.95;62.95
77079;BME280;66004;55.096;38.760;2023-12-04T20:05:25;100245.81;;;-6.91;62.63
77079;BME280;66004;55.096;38.760;2023-12-04T20:07:53;100230.75;;;-7.00;62.46
77079;BME280;66004;55.096;38.760;2023-12-04T20:10:21;100248.38;;;-6.96;62.71
77079;BME280;66004;55.096;38.760;2023-12-04T20:12:48;100247.16;;;-7.00;62.39
77079;BME280;66004;55.096;38.760;2023-12-04T20:15:13;100236.31;;;-7.14;62.77
77079;BME280;66004;55.096;38.760;2023-12-04T20:17:39;100252.03;;;-7.09;62.83
77079;BME280;66004;55.096;38.760;2023-12-04T20:20:11;100233.84;;;-7.29;62.45
77079;BME280;66004;55.096;38.760;2023-12-04T20:22:39;100251.09;;;-7.28;62.87
77079;BME280;66004;55.096;38.760;2023-12-04T20:25:05;100257.78;;;-7.24;62.62
77079;BME280;66004;55.096;38.760;2023-12-04T20:27:31;100262.03;;;-7.28;62.66
77079;BME280;66004;55.096;38.760;2023-12-04T20:29:57;100232.91;;;-7.48;62.96
77079;BME280;66004;55.096;38.760;2023-12-04T20:32:22;100261.41;;;-7.30;63.03
77079;BME280;66004;55.096;38.760;2023-12-04T20:34:48;100253.63;;;-7.33;63.09
77079;BME280;66004;55.096;38.760;2023-12-04T20:37:13;100264.34;;;-7.25;62.95
77079;BME280;66004;55.096;38.760;2023-12-04T20:39:39;100265.78;;;-7.22;63.11
77079;BME280;66004;55.096;38.760;2023-12-04T20:42:04;100254.44;;;-7.26;63.07
77079;BME280;66004;55.096;38.760;2023-12-04T20:44:33;100264.09;;;-7.24;62.99
77079;BME280;66004;55.096;38.760;2023-12-04T20:47:01;100242.06;;;-7.35;62.91
77079;BME280;66004;55.096;38.760;2023-12-04T20:49:27;100268.91;;;-7.19;62.99
77079;BME280;66004;55.096;38.760;2023-12-04T20:51:53;100271.66;;;-7.19;63.18
77079;BME280;66004;55.096;38.760;2023-12-04T20:54:51;100268.72;;;-7.17;62.80
77079;BME280;66004;55.096;38.760;2023-12-04T20:57:17;100273.31;;;-7.18;63.14
77079;BME280;66004;55.096;38.760;2023-12-04T20:59:42;100265.59;;;-7.28;63.26
77079;BME280;66004;55.096;38.760;2023-12-04T21:02:11;100271.66;;;-7.19;63.10
77079;BME280;66004;55.096;38.760;2023-12-04T21:04:36;100277.53;;;-7.22;63.10
77079;BME280;66004;55.096;38.760;2023-12-04T21:07:01;100277.53;;;-7.22;63.21
77079;BME280;66004;55.096;38.760;2023-12-04T21:09:27;100278.00;;;-7.25;63.02
77079;BME280;66004;55.096;38.760;2023-12-04T21:11:52;100276.31;;;-7.26;63.00
77079;BME280;66004;55.096;38.760;2023-12-04T21:14:18;100276.13;;;-7.31;63.01
77079;BME280;66004;55.096;38.760;2023-12-04T21:16:43;100266.69;;;-7.35;62.99
77079;BME280;66004;55.096;38.760;2023-12-04T21:19:11;100279.72;;;-7.31;63.06
77079;BME280;66004;55.096;38.760;2023-12-04T21:21:36;100288.94;;;-7.32;62.95
77079;BME280;66004;55.096;38.760;2023-12-04T21:24:02;100273.03;;;-7.41;63.18
77079;BME280;66004;55.096;38.760;2023-12-04T21:26:30;100292.09;;;-7.35;62.95
77079;BME280;66004;55.096;38.760;2023-12-04T21:29:05;100279.53;;;-7.43;63.07
77079;BME280;66004;55.096;38.760;2023-12-04T21:31:34;100292.34;;;-7.36;63.35
77079;BME280;66004;55.096;38.760;2023-12-04T21:33:59;100298.66;;;-7.36;63.23
77079;BME280;66004;55.096;38.760;2023-12-04T21:36:27;100298.25;;;-7.39;62.97
77079;BME280;66004;55.096;38.760;2023-12-04T21:38:53;100302.47;;;-7.44;63.16
77079;BME280;66004;55.096;38.760;2023-12-04T21:41:18;100297.41;;;-7.47;63.08
77079;BME280;66004;55.096;38.760;2023-12-04T21:43:44;100293.25;;;-7.56;63.40
77079;BME280;66004;55.096;38.760;2023-12-04T21:46:09;100302.06;;;-7.54;63.08
77079;BME280;66004;55.096;38.760;2023-12-04T21:48:35;100295.75;;;-7.61;63.09
77079;BME280;66004;55.096;38.760;2023-12-04T21:51:01;100288.44;;;-7.67;63.46
77079;BME280;66004;55.096;38.760;2023-12-04T21:53:26;100289.72;;;-7.76;63.30
77079;BME280;66004;55.096;38.760;2023-12-04T21:55:52;100294.56;;;-7.78;63.27
77079;BME280;66004;55.096;38.760;2023-12-04T21:58:17;100288.25;;;-7.86;63.00
77079;BME280;66004;55.096;38.760;2023-12-04T22:00:42;100297.09;;;-7.84;63.38
77079;BME280;66004;55.096;38.760;2023-12-04T22:03:08;100286.19;;;-7.90;63.45
77079;BME280;66004;55.096;38.760;2023-12-04T22:05:33;100289.97;;;-7.85;63.67
77079;BME280;66004;55.096;38.760;2023-12-04T22:07:59;100265.19;;;-8.03;63.32
77079;BME280;66004;55.096;38.760;2023-12-04T22:10:25;100299.81;;;-7.84;63.68
77079;BME280;66004;55.096;38.760;2023-12-04T22:12:50;100303.00;;;-7.87;63.42
77079;BME280;66004;55.096;38.760;2023-12-04T22:15:16;100294.81;;;-8.00;63.18
77079;BME280;66004;55.096;38.760;2023-12-04T22:17:41;100292.91;;;-7.99;63.44
77079;BME280;66004;55.096;38.760;2023-12-04T22:20:07;100278.00;;;-8.10;63.22
77079;BME280;66004;55.096;38.760;2023-12-04T22:22:33;100298.38;;;-7.93;63.24
77079;BME280;66004;55.096;38.760;2023-12-04T22:24:58;100301.28;;;-7.88;63.11
77079;BME280;66004;55.096;38.760;2023-12-04T22:31:11;100307.59;;;-7.80;63.08
77079;BME280;66004;55.096;38.760;2023-12-04T22:33:39;100309.88;;;-7.71;63.16